createdAt,value
2019-05-11T00:04:55.671Z,100016.97
2019-05-11T00:09:58.647Z,99999.86
2019-05-11T00:15:00.904Z,99985.23
2019-05-11T00:20:03.258Z,99982.59
2019-05-11T00:25:05.596Z,99967.93
2019-05-11T00:30:08.276Z,99963.83
2019-05-11T00:35:10.651Z,99965.30
2019-05-11T00:40:14.818Z,99963.00
2019-05-11T00:45:16.892Z,99956.75
2019-05-11T00:50:19.145Z,99956.42
2019-05-11T00:55:21.225Z,99970.06
2019-05-11T01:00:23.270Z,99969.08
2019-05-11T01:05:25.342Z,99960.20
2019-05-11T01:10:41.166Z,99967.25
2019-05-11T01:15:31.404Z,99967.44
2019-05-11T01:20:33.462Z,99944.56
2019-05-11T01:25:35.485Z,99945.55
2019-05-11T01:30:38.881Z,99945.69
2019-05-11T01:35:41.091Z,99940.43
2019-05-11T01:40:57.718Z,99926.59
2019-05-11T01:45:47.479Z,99936.78
2019-05-11T01:50:49.546Z,99925.56
2019-05-11T01:55:51.646Z,99916.54
2019-05-11T02:00:53.681Z,99911.79
2019-05-11T02:05:55.808Z,99902.25
2019-05-11T02:11:13.761Z,99893.55
2019-05-11T02:16:01.814Z,99898.48
2019-05-11T02:21:03.853Z,99899.97
2019-05-11T02:26:05.984Z,99906.91
2019-05-11T02:31:08.042Z,99897.69
2019-05-11T02:36:10.116Z,99896.20
2019-05-11T02:41:12.142Z,99889.27
2019-05-11T02:46:14.478Z,99887.78
2019-05-11T02:51:16.847Z,99880.52
2019-05-11T02:56:21.052Z,99877.05
2019-05-11T03:01:23.872Z,99879.78
2019-05-11T03:06:25.971Z,99875.33
2019-05-11T03:11:28.040Z,99881.39
2019-05-11T03:16:30.122Z,99878.09
2019-05-11T03:21:32.271Z,99874.48
2019-05-11T03:26:34.317Z,99884.09
2019-05-11T03:31:36.387Z,99885.41
2019-05-11T03:36:38.484Z,99877.63
2019-05-11T03:41:41.013Z,99875.28
2019-05-11T03:46:43.250Z,99879.08
2019-05-11T03:51:45.359Z,99873.83
2019-05-11T03:56:47.447Z,99873.02
2019-05-11T04:01:49.514Z,99860.55
2019-05-11T04:06:51.560Z,99864.63
2019-05-11T04:11:53.608Z,99855.94
2019-05-11T04:16:55.650Z,99855.75
2019-05-11T04:21:57.716Z,99856.03
2019-05-11T04:26:59.809Z,99865.47
2019-05-11T04:32:04.015Z,99855.28
2019-05-11T04:37:06.095Z,99850.64
2019-05-11T04:42:08.155Z,99843.02
2019-05-11T04:47:10.224Z,99844.34
2019-05-11T04:52:12.329Z,99865.94
2019-05-11T04:57:14.399Z,99868.42
2019-05-11T05:02:16.493Z,99859.59
2019-05-11T05:07:18.553Z,99852.80
2019-05-11T05:12:20.646Z,99844.91
2019-05-11T05:17:22.699Z,99847.35
2019-05-11T05:22:27.958Z,99845.09
2019-05-11T05:27:28.846Z,99838.99
2019-05-11T05:32:30.878Z,99847.72
2019-05-11T05:37:32.967Z,99842.02
2019-05-11T05:42:35.098Z,99841.70
2019-05-11T05:47:37.150Z,99840.31
2019-05-11T05:52:39.224Z,99835.30
2019-05-11T05:57:41.323Z,99843.52
2019-05-11T06:02:43.427Z,99833.66
2019-05-11T06:07:45.452Z,99834.31
2019-05-11T06:12:47.505Z,99826.45
2019-05-11T06:17:49.561Z,99834.02
2019-05-11T06:22:51.619Z,99839.27
2019-05-11T06:27:53.693Z,99840.94
2019-05-11T06:32:55.746Z,99835.83
2019-05-11T06:37:57.809Z,99832.20
2019-05-11T06:42:59.855Z,99833.53
2019-05-11T06:48:01.919Z,99827.10
2019-05-11T06:53:04.071Z,99824.81
2019-05-11T06:58:07.955Z,99826.13
2019-05-11T07:03:10.038Z,99820.51
2019-05-11T07:08:12.234Z,99803.70
2019-05-11T07:13:14.287Z,99808.64
2019-05-11T07:18:16.502Z,99804.87
2019-05-11T07:23:18.583Z,99812.92
2019-05-11T07:28:20.663Z,99802.45
2019-05-11T07:33:22.726Z,99805.38
2019-05-11T07:38:24.829Z,99797.48
2019-05-11T07:43:28.720Z,99796.30
2019-05-11T07:48:30.905Z,99794.84
2019-05-11T07:53:32.976Z,99790.60
2019-05-11T07:58:35.008Z,99788.95
2019-05-11T08:03:38.869Z,99779.23
2019-05-11T08:08:41.073Z,99791.58
2019-05-11T08:13:43.186Z,99788.79
2019-05-11T08:18:47.870Z,99780.23
2019-05-11T08:23:49.242Z,99782.36
2019-05-11T08:28:51.309Z,99785.84
2019-05-11T08:33:53.388Z,99783.16
2019-05-11T08:38:55.421Z,99783.03
2019-05-11T08:43:58.691Z,99786.61
2019-05-11T08:49:01.120Z,99793.52
2019-05-11T08:54:03.233Z,99808.00
2019-05-11T08:59:07.392Z,99795.36
2019-05-11T09:04:09.337Z,99802.23
2019-05-11T09:09:13.227Z,99799.79
2019-05-11T09:14:15.448Z,99803.43
2019-05-11T09:19:17.857Z,99797.18
2019-05-11T09:24:20.086Z,99789.94
2019-05-11T09:29:22.177Z,99794.88
2019-05-11T09:34:24.224Z,99795.20
2019-05-11T09:39:28.113Z,99801.13
2019-05-11T09:44:30.259Z,99811.97
2019-05-11T09:49:43.997Z,99815.94
2019-05-11T09:54:38.213Z,99821.36
2019-05-11T09:59:40.373Z,99818.55
2019-05-11T10:04:42.442Z,99820.87
2019-05-11T10:09:44.611Z,99818.06
2019-05-11T10:14:48.556Z,99809.66
2019-05-11T10:19:50.685Z,99801.10
2019-05-11T10:24:52.741Z,99805.41
2019-05-11T10:29:54.892Z,99786.33
2019-05-11T10:34:58.377Z,99778.60
2019-05-11T10:40:00.764Z,99795.05
2019-05-11T10:45:02.883Z,99800.27
2019-05-11T10:50:08.379Z,99795.69
2019-05-11T10:55:10.078Z,99785.77
2019-05-11T11:00:12.197Z,99784.25
2019-05-11T11:05:14.344Z,99777.66
2019-05-11T11:10:18.185Z,99771.89
2019-05-11T11:15:20.752Z,99765.47
2019-05-11T11:20:22.817Z,99755.38
2019-05-11T11:25:24.879Z,99755.52
2019-05-11T11:30:28.578Z,99750.23
2019-05-11T11:35:30.974Z,99752.28
2019-05-11T11:40:33.031Z,99751.95
2019-05-11T11:45:35.240Z,99749.83
2019-05-11T11:50:37.722Z,99732.19
2019-05-11T11:55:39.998Z,99736.16
2019-05-11T12:00:42.051Z,99739.81
2019-05-11T12:05:44.182Z,99740.61
2019-05-11T12:10:48.323Z,99736.20
2019-05-11T12:15:50.186Z,99739.52
2019-05-11T12:20:52.255Z,99733.95
2019-05-11T12:25:54.304Z,99749.23
2019-05-11T12:30:58.442Z,99743.14
2019-05-11T12:36:00.395Z,99751.06
2019-05-11T12:41:02.432Z,99753.17
2019-05-11T12:46:04.443Z,99754.49
2019-05-11T12:51:07.945Z,99760.75
2019-05-11T12:56:10.541Z,99762.05
2019-05-11T13:01:12.605Z,99767.34
2019-05-11T13:06:14.688Z,99770.96
2019-05-11T13:11:18.788Z,99776.04
2019-05-11T13:16:20.687Z,99787.60
2019-05-11T13:21:22.720Z,99780.37
2019-05-11T13:26:24.785Z,99794.34
2019-05-11T13:31:27.828Z,99796.95
2019-05-11T13:36:30.132Z,99798.61
2019-05-11T13:41:32.180Z,99795.16
2019-05-11T13:46:34.220Z,99792.39
2019-05-11T13:51:38.585Z,99775.61
2019-05-11T13:56:40.330Z,99775.97
2019-05-11T14:01:42.375Z,99792.40
2019-05-11T14:06:44.472Z,99823.81
2019-05-11T14:11:47.896Z,99823.17
2019-05-11T14:16:50.065Z,99812.31
2019-05-11T14:21:52.109Z,99790.79
2019-05-11T14:26:54.137Z,99825.48
2019-05-11T14:31:58.052Z,99843.21
2019-05-11T14:37:00.207Z,99844.88
2019-05-11T14:42:02.364Z,99849.79
2019-05-11T14:47:04.450Z,99859.17
2019-05-11T14:52:08.331Z,99870.36
2019-05-11T14:57:10.556Z,99867.22
2019-05-11T15:02:37.627Z,99863.27
2019-05-11T15:07:39.276Z,99863.27
2019-05-11T15:12:41.405Z,99864.59
2019-05-11T15:17:43.563Z,99890.74
2019-05-11T15:22:45.615Z,99892.72
2019-05-11T15:27:48.840Z,99897.14
2019-05-11T15:32:51.181Z,99909.78
2019-05-11T15:37:53.228Z,99926.40
2019-05-11T15:42:55.305Z,99932.31
2019-05-11T15:47:58.938Z,99933.96
2019-05-11T15:53:01.398Z,99956.50
2019-05-11T15:58:06.553Z,99947.26
2019-05-11T16:03:08.659Z,99960.58
2019-05-11T16:08:12.619Z,99970.27
2019-05-11T16:13:14.654Z,99962.39
2019-05-11T16:18:18.869Z,99958.29
2019-05-11T16:23:20.766Z,99975.20
2019-05-11T16:28:22.959Z,99987.34
2019-05-11T16:33:25.022Z,100013.73
2019-05-11T16:38:29.035Z,100031.08
2019-05-11T16:43:31.262Z,100027.89
2019-05-11T16:48:33.342Z,100045.91
2019-05-11T16:53:36.285Z,100053.77
2019-05-11T16:58:41.084Z,100063.93
2019-05-11T17:03:43.566Z,100083.42
2019-05-11T17:08:45.633Z,100078.48
2019-05-11T17:13:48.388Z,100097.95
2019-05-11T17:18:50.641Z,100108.80
2019-05-11T17:23:52.726Z,100114.84
2019-05-11T17:28:54.830Z,100125.42
2019-05-11T17:33:58.080Z,100131.32
2019-05-11T17:39:00.518Z,100134.59
2019-05-11T17:44:02.740Z,100150.88
2019-05-11T17:49:08.096Z,100165.13
2019-05-11T17:54:11.438Z,100179.50
2019-05-11T17:59:13.830Z,100190.11
2019-05-11T18:04:18.272Z,100190.88
2019-05-11T18:09:19.931Z,100201.81
2019-05-11T18:14:21.995Z,100199.59
2019-05-11T18:19:24.136Z,100226.87
2019-05-11T18:24:28.360Z,100238.01
2019-05-11T18:29:30.153Z,100256.61
2019-05-11T18:34:32.221Z,100269.70
2019-05-11T18:39:34.415Z,100291.03
2019-05-11T18:44:37.929Z,100301.19
2019-05-11T18:49:40.363Z,100302.58
2019-05-11T18:54:42.359Z,100316.17
2019-05-11T18:59:44.526Z,100323.68
2019-05-11T19:04:48.780Z,100335.70
2019-05-11T19:09:50.800Z,100339.88
2019-05-11T19:14:52.842Z,100357.56
2019-05-11T19:19:54.896Z,100365.58
2019-05-11T19:24:58.262Z,100374.61
2019-05-11T19:30:00.530Z,100382.48
2019-05-11T19:35:02.740Z,100385.39
2019-05-11T19:40:05.948Z,100384.77
2019-05-11T19:45:08.133Z,100390.13
2019-05-11T19:50:10.169Z,100398.52
2019-05-11T19:55:12.356Z,100417.19
2019-05-11T20:00:14.893Z,100440.77
2019-05-11T20:05:18.444Z,100456.72
2019-05-11T20:10:20.913Z,100460.84
2019-05-11T20:15:22.994Z,100471.89
2019-05-11T20:20:25.036Z,100480.30
2019-05-11T20:25:28.826Z,100491.37
2019-05-11T20:30:31.091Z,100501.03
2019-05-11T20:35:33.176Z,100521.47
2019-05-11T20:40:37.496Z,100552.09
2019-05-11T20:45:39.297Z,100563.39
2019-05-11T20:50:41.332Z,100570.17
2019-05-11T20:55:43.400Z,100569.59
2019-05-11T21:00:45.435Z,100582.87
2019-05-11T21:05:48.252Z,100584.05
2019-05-11T21:10:50.474Z,100589.28
2019-05-11T21:15:52.517Z,100598.11
2019-05-11T21:20:57.770Z,100598.02
2019-05-11T21:26:00.139Z,100607.69
2019-05-11T21:31:02.196Z,100613.13
2019-05-11T21:36:04.249Z,100622.56
2019-05-11T21:41:08.597Z,100630.92
2019-05-11T21:46:10.383Z,100629.11
2019-05-11T21:51:12.444Z,100640.44
2019-05-11T21:56:14.565Z,100649.75
2019-05-11T22:01:18.386Z,100654.62
2019-05-11T22:06:20.579Z,100665.70
2019-05-11T22:11:22.687Z,100669.84
2019-05-11T22:16:24.960Z,100685.42
2019-05-11T22:21:28.060Z,100694.95
2019-05-11T22:26:30.453Z,100704.36
2019-05-11T22:31:32.801Z,100713.38
2019-05-11T22:36:34.875Z,100723.61
2019-05-11T22:41:39.343Z,100718.86
2019-05-11T22:46:41.018Z,100719.80
2019-05-11T22:51:43.217Z,100720.88
2019-05-11T22:56:45.304Z,100725.86
2019-05-11T23:01:48.316Z,100734.23
2019-05-11T23:06:50.579Z,100748.23
2019-05-11T23:11:52.642Z,100755.04
2019-05-11T23:16:54.719Z,100768.14
2019-05-11T23:21:58.720Z,100775.05
2019-05-11T23:27:00.727Z,100780.18
2019-05-11T23:32:02.830Z,100780.03
2019-05-11T23:37:07.969Z,100794.10
2019-05-11T23:42:10.189Z,100788.65
2019-05-11T23:47:12.275Z,100799.39
2019-05-11T23:52:14.525Z,100799.97
2019-05-11T23:57:18.612Z,100809.76
